sensor_id;sensor_type;location;lat;lon;timestamp;P1;durP1;ratioP1;P2;durP2;ratioP2
12480;SDS011;6305;48.398;11.762;2023-09-19T00:02:05;3.47;;;1.95;;
12480;SDS011;6305;48.398;11.762;2023-09-19T00:04:35;2.50;;;2.03;;
12480;SDS011;6305;48.398;11.762;2023-09-19T00:07:05;5.15;;;2.30;;
12480;SDS011;6305;48.398;11.762;2023-09-19T00:09:31;4.10;;;2.05;;
12480;SDS011;6305;48.398;11.762;2023-09-19T00:12:03;3.90;;;2.10;;
12480;SDS011;6305;48.398;11.762;2023-09-19T00:14:31;3.15;;;1.83;;
12480;SDS011;6305;48.398;11.762;2023-09-19T00:17:00;3.10;;;2.20;;
12480;SDS011;6305;48.398;11.762;2023-09-19T00:19:31;3.67;;;1.92;;
12480;SDS011;6305;48.398;11.762;2023-09-19T00:22:00;2.60;;;1.98;;
12480;SDS011;6305;48.398;11.762;2023-09-19T00:24:28;3.33;;;1.88;;
12480;SDS011;6305;48.398;11.762;2023-09-19T00:26:58;4.38;;;2.15;;
12480;SDS011;6305;48.398;11.762;2023-09-19T00:29:25;2.78;;;1.90;;
12480;SDS011;6305;48.398;11.762;2023-09-19T00:31:54;3.58;;;1.83;;
12480;SDS011;6305;48.398;11.762;2023-09-19T00:34:22;3.35;;;1.95;;
12480;SDS011;6305;48.398;11.762;2023-09-19T00:36:50;5.22;;;2.65;;
12480;SDS011;6305;48.398;11.762;2023-09-19T00:39:20;2.50;;;2.03;;
12480;SDS011;6305;48.398;11.762;2023-09-19T00:41:50;2.85;;;2.10;;
12480;SDS011;6305;48.398;11.762;2023-09-19T00:44:20;3.15;;;2.00;;
12480;SDS011;6305;48.398;11.762;2023-09-19T00:46:49;2.33;;;1.67;;
12480;SDS011;6305;48.398;11.762;2023-09-19T00:49:17;3.67;;;2.28;;
12480;SDS011;6305;48.398;11.762;2023-09-19T00:51:48;3.50;;;2.00;;
12480;SDS011;6305;48.398;11.762;2023-09-19T00:54:15;2.70;;;2.05;;
12480;SDS011;6305;48.398;11.762;2023-09-19T00:56:46;3.85;;;2.08;;
12480;SDS011;6305;48.398;11.762;2023-09-19T00:59:14;2.58;;;2.08;;
12480;SDS011;6305;48.398;11.762;2023-09-19T01:01:42;2.85;;;1.95;;
12480;SDS011;6305;48.398;11.762;2023-09-19T01:04:11;3.75;;;2.20;;
12480;SDS011;6305;48.398;11.762;2023-09-19T01:06:39;2.70;;;2.03;;
12480;SDS011;6305;48.398;11.762;2023-09-19T01:09:06;2.90;;;2.20;;
12480;SDS011;6305;48.398;11.762;2023-09-19T01:11:36;4.15;;;2.10;;
12480;SDS011;6305;48.398;11.762;2023-09-19T01:14:12;2.78;;;1.90;;
12480;SDS011;6305;48.398;11.762;2023-09-19T01:16:49;2.33;;;1.85;;
12480;SDS011;6305;48.398;11.762;2023-09-19T01:22:29;2.17;;;1.90;;
12480;SDS011;6305;48.398;11.762;2023-09-19T01:28:24;2.50;;;1.77;;
12480;SDS011;6305;48.398;11.762;2023-09-19T01:31:03;3.88;;;1.80;;
12480;SDS011;6305;48.398;11.762;2023-09-19T01:36:27;2.72;;;1.60;;
12480;SDS011;6305;48.398;11.762;2023-09-19T01:38:55;2.60;;;1.90;;
12480;SDS011;6305;48.398;11.762;2023-09-19T01:41:35;3.67;;;2.10;;
12480;SDS011;6305;48.398;11.762;2023-09-19T01:44:13;3.17;;;1.77;;
12480;SDS011;6305;48.398;11.762;2023-09-19T01:46:46;3.10;;;1.60;;
12480;SDS011;6305;48.398;11.762;2023-09-19T01:49:18;1.85;;;1.52;;
12480;SDS011;6305;48.398;11.762;2023-09-19T01:51:53;2.38;;;1.95;;
12480;SDS011;6305;48.398;11.762;2023-09-19T01:54:30;2.45;;;1.73;;
12480;SDS011;6305;48.398;11.762;2023-09-19T01:57:05;5.15;;;1.73;;
12480;SDS011;6305;48.398;11.762;2023-09-19T01:59:41;2.60;;;1.50;;
12480;SDS011;6305;48.398;11.762;2023-09-19T02:02:14;5.40;;;1.90;;
12480;SDS011;6305;48.398;11.762;2023-09-19T02:04:43;2.85;;;1.90;;
12480;SDS011;6305;48.398;11.762;2023-09-19T02:07:10;3.28;;;1.77;;
12480;SDS011;6305;48.398;11.762;2023-09-19T02:09:37;2.25;;;1.42;;
12480;SDS011;6305;48.398;11.762;2023-09-19T02:12:05;2.20;;;1.83;;
12480;SDS011;6305;48.398;11.762;2023-09-19T02:14:32;2.95;;;1.80;;
12480;SDS011;6305;48.398;11.762;2023-09-19T02:17:02;3.20;;;1.70;;
12480;SDS011;6305;48.398;11.762;2023-09-19T02:19:32;3.13;;;1.55;;
12480;SDS011;6305;48.398;11.762;2023-09-19T02:21:59;2.85;;;1.80;;
12480;SDS011;6305;48.398;11.762;2023-09-19T02:24:28;2.53;;;1.73;;
12480;SDS011;6305;48.398;11.762;2023-09-19T02:26:56;3.00;;;1.80;;
12480;SDS011;6305;48.398;11.762;2023-09-19T02:29:24;3.58;;;1.90;;
12480;SDS011;6305;48.398;11.762;2023-09-19T02:31:52;1.92;;;1.73;;
12480;SDS011;6305;48.398;11.762;2023-09-19T02:34:21;2.00;;;1.55;;
12480;SDS011;6305;48.398;11.762;2023-09-19T02:36:50;2.85;;;1.85;;
12480;SDS011;6305;48.398;11.762;2023-09-19T02:39:18;2.60;;;1.75;;
12480;SDS011;6305;48.398;11.762;2023-09-19T02:41:45;3.63;;;1.70;;
12480;SDS011;6305;48.398;11.762;2023-09-19T02:44:13;3.80;;;1.70;;
12480;SDS011;6305;48.398;11.762;2023-09-19T02:46:40;2.95;;;1.80;;
12480;SDS011;6305;48.398;11.762;2023-09-19T02:49:07;3.10;;;1.65;;
12480;SDS011;6305;48.398;11.762;2023-09-19T02:51:34;1.95;;;1.45;;
12480;SDS011;6305;48.398;11.762;2023-09-19T02:54:03;3.15;;;1.90;;
12480;SDS011;6305;48.398;11.762;2023-09-19T02:56:30;1.67;;;1.40;;
12480;SDS011;6305;48.398;11.762;2023-09-19T02:58:58;2.17;;;1.98;;
12480;SDS011;6305;48.398;11.762;2023-09-19T03:01:25;2.45;;;1.77;;
12480;SDS011;6305;48.398;11.762;2023-09-19T03:03:53;5.10;;;1.92;;
12480;SDS011;6305;48.398;11.762;2023-09-19T03:06:20;2.08;;;1.52;;
12480;SDS011;6305;48.398;11.762;2023-09-19T03:08:49;5.95;;;1.83;;
12480;SDS011;6305;48.398;11.762;2023-09-19T03:11:20;4.20;;;2.03;;
12480;SDS011;6305;48.398;11.762;2023-09-19T03:13:53;2.63;;;1.55;;
12480;SDS011;6305;48.398;11.762;2023-09-19T03:16:21;2.35;;;1.55;;
12480;SDS011;6305;48.398;11.762;2023-09-19T03:18:50;2.17;;;1.92;;
12480;SDS011;6305;48.398;11.762;2023-09-19T03:21:17;2.78;;;1.98;;
12480;SDS011;6305;48.398;11.762;2023-09-19T03:23:47;3.25;;;1.80;;
12480;SDS011;6305;48.398;11.762;2023-09-19T03:26:14;4.55;;;1.83;;
12480;SDS011;6305;48.398;11.762;2023-09-19T03:28:43;3.10;;;1.77;;
12480;SDS011;6305;48.398;11.762;2023-09-19T03:31:11;3.08;;;1.52;;
12480;SDS011;6305;48.398;11.762;2023-09-19T03:33:38;3.47;;;1.63;;
12480;SDS011;6305;48.398;11.762;2023-09-19T03:36:05;1.90;;;1.63;;
12480;SDS011;6305;48.398;11.762;2023-09-19T03:38:33;4.70;;;1.70;;
12480;SDS011;6305;48.398;11.762;2023-09-19T03:41:01;2.75;;;1.77;;
12480;SDS011;6305;48.398;11.762;2023-09-19T03:43:28;5.20;;;1.90;;
12480;SDS011;6305;48.398;11.762;2023-09-19T03:45:56;3.50;;;1.70;;
12480;SDS011;6305;48.398;11.762;2023-09-19T03:48:27;3.72;;;1.80;;
12480;SDS011;6305;48.398;11.762;2023-09-19T03:50:56;2.00;;;1.80;;
12480;SDS011;6305;48.398;11.762;2023-09-19T03:53:23;2.03;;;1.80;;
12480;SDS011;6305;48.398;11.762;2023-09-19T03:55:50;2.50;;;1.60;;
12480;SDS011;6305;48.398;11.762;2023-09-19T03:58:17;2.20;;;1.52;;
12480;SDS011;6305;48.398;11.762;2023-09-19T04:00:45;1.98;;;1.55;;
12480;SDS011;6305;48.398;11.762;2023-09-19T04:03:14;3.08;;;2.13;;
12480;SDS011;6305;48.398;11.762;2023-09-19T04:05:46;2.00;;;1.60;;
12480;SDS011;6305;48.398;11.762;2023-09-19T04:08:13;3.03;;;1.80;;
12480;SDS011;6305;48.398;11.762;2023-09-19T04:10:41;2.30;;;1.55;;
12480;SDS011;6305;48.398;11.762;2023-09-19T04:13:10;3.15;;;1.65;;
12480;SDS011;6305;48.398;11.762;2023-09-19T04:15:37;2.72;;;1.70;;
12480;SDS011;6305;48.398;11.762;2023-09-19T04:18:05;2.53;;;1.50;;
12480;SDS011;6305;48.398;11.762;2023-09-19T04:20:33;3.40;;;1.58;;
12480;SDS011;6305;48.398;11.762;2023-09-19T04:23:00;2.83;;;1.52;;
12480;SDS011;6305;48.398;11.762;2023-09-19T04:25:27;2.55;;;1.70;;
12480;SDS011;6305;48.398;11.762;2023-09-19T04:27:54;3.78;;;1.65;;
12480;SDS011;6305;48.398;11.762;2023-09-19T04:30:21;2.33;;;1.65;;
12480;SDS011;6305;48.398;11.762;2023-09-19T04:32:48;1.95;;;1.58;;
12480;SDS011;6305;48.398;11.762;2023-09-19T04:35:16;3.95;;;1.80;;
12480;SDS011;6305;48.398;11.762;2023-09-19T04:37:45;2.08;;;1.85;;
12480;SDS011;6305;48.398;11.762;2023-09-19T04:40:13;2.03;;;1.60;;
12480;SDS011;6305;48.398;11.762;2023-09-19T04:42:42;3.05;;;1.85;;
12480;SDS011;6305;48.398;11.762;2023-09-19T04:45:10;2.30;;;1.65;;
12480;SDS011;6305;48.398;11.762;2023-09-19T04:47:37;2.92;;;1.77;;
12480;SDS011;6305;48.398;11.762;2023-09-19T04:50:07;2.95;;;1.90;;
12480;SDS011;6305;48.398;11.762;2023-09-19T04:52:39;2.45;;;1.50;;
12480;SDS011;6305;48.398;11.762;2023-09-19T04:55:11;2.90;;;1.70;;
12480;SDS011;6305;48.398;11.762;2023-09-19T04:57:41;2.85;;;1.58;;
12480;SDS011;6305;48.398;11.762;2023-09-19T05:00:10;2.63;;;1.63;;
12480;SDS011;6305;48.398;11.762;2023-09-19T05:02:40;3.63;;;1.88;;
12480;SDS011;6305;48.398;11.762;2023-09-19T05:05:07;3.65;;;1.70;;
12480;SDS011;6305;48.398;11.762;2023-09-19T05:07:36;2.65;;;1.60;;
12480;SDS011;6305;48.398;11.762;2023-09-19T05:10:06;2.00;;;1.52;;
12480;SDS011;6305;48.398;11.762;2023-09-19T05:12:35;4.10;;;1.63;;
12480;SDS011;6305;48.398;11.762;2023-09-19T05:15:02;2.90;;;1.60;;
12480;SDS011;6305;48.398;11.762;2023-09-19T05:17:30;4.05;;;1.60;;
12480;SDS011;6305;48.398;11.762;2023-09-19T05:19:58;2.17;;;1.75;;
12480;SDS011;6305;48.398;11.762;2023-09-19T05:22:26;4.13;;;1.75;;
12480;SDS011;6305;48.398;11.762;2023-09-19T05:24:54;2.35;;;1.55;;
12480;SDS011;6305;48.398;11.762;2023-09-19T05:27:21;2.10;;;1.73;;
12480;SDS011;6305;48.398;11.762;2023-09-19T05:29:49;2.03;;;1.30;;
12480;SDS011;6305;48.398;11.762;2023-09-19T05:32:18;3.60;;;1.63;;
12480;SDS011;6305;48.398;11.762;2023-09-19T05:34:45;2.88;;;1.77;;
12480;SDS011;6305;48.398;11.762;2023-09-19T05:37:13;2.67;;;1.45;;
12480;SDS011;6305;48.398;11.762;2023-09-19T05:39:41;2.70;;;1.58;;
12480;SDS011;6305;48.398;11.762;2023-09-19T05:42:09;2.17;;;1.85;;
12480;SDS011;6305;48.398;11.762;2023-09-19T05:44:36;2.38;;;1.60;;
12480;SDS011;6305;48.398;11.762;2023-09-19T05:47:04;2.85;;;1.60;;
12480;SDS011;6305;48.398;11.762;2023-09-19T05:49:34;2.78;;;1.73;;
12480;SDS011;6305;48.398;11.762;2023-09-19T05:52:03;2.30;;;1.67;;
12480;SDS011;6305;48.398;11.762;2023-09-19T05:54:30;3.25;;;1.70;;
12480;SDS011;6305;48.398;11.762;2023-09-19T05:56:58;2.22;;;1.88;;
12480;SDS011;6305;48.398;11.762;2023-09-19T05:59:25;3.30;;;1.80;;
12480;SDS011;6305;48.398;11.762;2023-09-19T06:01:52;2.20;;;1.80;;
12480;SDS011;6305;48.398;11.762;2023-09-19T06:04:20;2.45;;;1.70;;
12480;SDS011;6305;48.398;11.762;2023-09-19T06:06:48;2.88;;;1.90;;
12480;SDS011;6305;48.398;11.762;2023-09-19T06:09:15;2.42;;;1.70;;
12480;SDS011;6305;48.398;11.762;2023-09-19T06:11:42;2.13;;;1.58;;
12480;SDS011;6305;48.398;11.762;2023-09-19T06:14:09;2.67;;;1.52;;
12480;SDS011;6305;48.398;11.762;2023-09-19T06:16:36;1.70;;;1.50;;
12480;SDS011;6305;48.398;11.762;2023-09-19T06:19:04;3.33;;;1.38;;
12480;SDS011;6305;48.398;11.762;2023-09-19T06:21:35;3.88;;;1.60;;
12480;SDS011;6305;48.398;11.762;2023-09-19T06:24:03;4.45;;;1.60;;
12480;SDS011;6305;48.398;11.762;2023-09-19T06:26:30;3.15;;;1.63;;
12480;SDS011;6305;48.398;11.762;2023-09-19T06:28:57;3.38;;;1.42;;
12480;SDS011;6305;48.398;11.762;2023-09-19T06:31:25;2.75;;;1.30;;
12480;SDS011;6305;48.398;11.762;2023-09-19T06:33:52;2.65;;;1.60;;
12480;SDS011;6305;48.398;11.762;2023-09-19T06:36:19;2.60;;;1.40;;
12480;SDS011;6305;48.398;11.762;2023-09-19T06:38:47;2.03;;;1.15;;
12480;SDS011;6305;48.398;11.762;2023-09-19T06:41:16;1.88;;;1.42;;
12480;SDS011;6305;48.398;11.762;2023-09-19T06:43:43;3.70;;;1.50;;
12480;SDS011;6305;48.398;11.762;2023-09-19T06:46:10;2.05;;;1.33;;
12480;SDS011;6305;48.398;11.762;2023-09-19T06:48:38;2.30;;;1.42;;
12480;SDS011;6305;48.398;11.762;2023-09-19T06:51:06;2.67;;;1.42;;
12480;SDS011;6305;48.398;11.762;2023-09-19T06:53:33;2.08;;;1.30;;
12480;SDS011;6305;48.398;11.762;2023-09-19T06:56:03;2.00;;;1.10;;
12480;SDS011;6305;48.398;11.762;2023-09-19T06:58:31;2.20;;;1.20;;
12480;SDS011;6305;48.398;11.762;2023-09-19T07:00:58;2.38;;;1.40;;
12480;SDS011;6305;48.398;11.762;2023-09-19T07:03:25;1.75;;;1.15;;
12480;SDS011;6305;48.398;11.762;2023-09-19T07:05:54;1.27;;;1.00;;
12480;SDS011;6305;48.398;11.762;2023-09-19T07:08:21;1.70;;;1.10;;
12480;SDS011;6305;48.398;11.762;2023-09-19T07:10:48;1.20;;;1.10;;
12480;SDS011;6305;48.398;11.762;2023-09-19T07:13:20;1.10;;;1.00;;
12480;SDS011;6305;48.398;11.762;2023-09-19T07:15:47;1.55;;;1.00;;
12480;SDS011;6305;48.398;11.762;2023-09-19T07:18:15;1.05;;;0.90;;
12480;SDS011;6305;48.398;11.762;2023-09-19T07:20:43;1.50;;;1.00;;
12480;SDS011;6305;48.398;11.762;2023-09-19T07:23:14;1.40;;;0.93;;
12480;SDS011;6305;48.398;11.762;2023-09-19T07:25:43;2.47;;;1.35;;
12480;SDS011;6305;48.398;11.762;2023-09-19T07:28:11;2.38;;;0.90;;
12480;SDS011;6305;48.398;11.762;2023-09-19T07:30:40;1.73;;;1.10;;
12480;SDS011;6305;48.398;11.762;2023-09-19T07:33:07;2.33;;;1.25;;
12480;SDS011;6305;48.398;11.762;2023-09-19T07:35:36;1.10;;;0.90;;
12480;SDS011;6305;48.398;11.762;2023-09-19T07:38:05;2.92;;;1.20;;
12480;SDS011;6305;48.398;11.762;2023-09-19T07:40:33;1.75;;;1.20;;
12480;SDS011;6305;48.398;11.762;2023-09-19T07:43:00;2.05;;;1.10;;
12480;SDS011;6305;48.398;11.762;2023-09-19T07:45:27;1.40;;;0.82;;
12480;SDS011;6305;48.398;11.762;2023-09-19T07:47:56;2.90;;;1.40;;
12480;SDS011;6305;48.398;11.762;2023-09-19T07:50:23;1.75;;;1.10;;
12480;SDS011;6305;48.398;11.762;2023-09-19T07:52:51;1.50;;;1.00;;
12480;SDS011;6305;48.398;11.762;2023-09-19T07:55:20;3.97;;;1.08;;
12480;SDS011;6305;48.398;11.762;2023-09-19T07:57:50;1.15;;;1.00;;
12480;SDS011;6305;48.398;11.762;2023-09-19T08:00:17;1.55;;;1.20;;
12480;SDS011;6305;48.398;11.762;2023-09-19T08:02:44;1.35;;;1.25;;
12480;SDS011;6305;48.398;11.762;2023-09-19T08:05:14;2.08;;;1.10;;
12480;SDS011;6305;48.398;11.762;2023-09-19T08:07:42;1.38;;;0.93;;
12480;SDS011;6305;48.398;11.762;2023-09-19T08:10:10;0.95;;;0.90;;
12480;SDS011;6305;48.398;11.762;2023-09-19T08:12:41;1.45;;;1.05;;
12480;SDS011;6305;48.398;11.762;2023-09-19T08:15:12;1.45;;;1.25;;
12480;SDS011;6305;48.398;11.762;2023-09-19T08:17:39;1.90;;;1.10;;
12480;SDS011;6305;48.398;11.762;2023-09-19T08:20:10;2.13;;;1.20;;
12480;SDS011;6305;48.398;11.762;2023-09-19T08:22:44;3.92;;;1.35;;
12480;SDS011;6305;48.398;11.762;2023-09-19T08:25:13;1.48;;;1.10;;
12480;SDS011;6305;48.398;11.762;2023-09-19T08:27:42;1.30;;;1.00;;
12480;SDS011;6305;48.398;11.762;2023-09-19T08:30:13;1.13;;;1.02;;
12480;SDS011;6305;48.398;11.762;2023-09-19T08:32:40;1.58;;;1.10;;
12480;SDS011;6305;48.398;11.762;2023-09-19T08:35:11;1.90;;;0.82;;
12480;SDS011;6305;48.398;11.762;2023-09-19T08:37:38;1.75;;;0.90;;
12480;SDS011;6305;48.398;11.762;2023-09-19T08:40:06;1.20;;;1.10;;
12480;SDS011;6305;48.398;11.762;2023-09-19T08:42:47;2.80;;;1.00;;
12480;SDS011;6305;48.398;11.762;2023-09-19T08:45:15;1.35;;;1.15;;
12480;SDS011;6305;48.398;11.762;2023-09-19T08:47:45;2.15;;;0.95;;
12480;SDS011;6305;48.398;11.762;2023-09-19T08:50:17;1.63;;;0.98;;
12480;SDS011;6305;48.398;11.762;2023-09-19T08:52:50;1.55;;;0.80;;
12480;SDS011;6305;48.398;11.762;2023-09-19T08:55:22;2.60;;;1.00;;
12480;SDS011;6305;48.398;11.762;2023-09-19T08:57:59;1.38;;;0.90;;
12480;SDS011;6305;48.398;11.762;2023-09-19T09:00:27;1.45;;;1.35;;
12480;SDS011;6305;48.398;11.762;2023-09-19T09:02:55;1.85;;;0.80;;
12480;SDS011;6305;48.398;11.762;2023-09-19T09:05:23;1.00;;;0.90;;
12480;SDS011;6305;48.398;11.762;2023-09-19T09:07:51;2.00;;;0.93;;
12480;SDS011;6305;48.398;11.762;2023-09-19T09:10:21;1.40;;;1.17;;
12480;SDS011;6305;48.398;11.762;2023-09-19T09:12:49;1.15;;;0.80;;
12480;SDS011;6305;48.398;11.762;2023-09-19T09:15:19;1.95;;;0.90;;
12480;SDS011;6305;48.398;11.762;2023-09-19T09:17:47;1.15;;;0.70;;
12480;SDS011;6305;48.398;11.762;2023-09-19T09:20:15;1.65;;;0.90;;
12480;SDS011;6305;48.398;11.762;2023-09-19T09:22:50;1.42;;;0.82;;
12480;SDS011;6305;48.398;11.762;2023-09-19T09:25:19;1.35;;;1.00;;
12480;SDS011;6305;48.398;11.762;2023-09-19T09:27:59;1.10;;;0.98;;
12480;SDS011;6305;48.398;11.762;2023-09-19T09:30:32;1.10;;;1.00;;
12480;SDS011;6305;48.398;11.762;2023-09-19T09:33:09;1.73;;;1.00;;
12480;SDS011;6305;48.398;11.762;2023-09-19T09:35:46;1.10;;;1.00;;
12480;SDS011;6305;48.398;11.762;2023-09-19T09:38:17;1.23;;;1.10;;
12480;SDS011;6305;48.398;11.762;2023-09-19T09:40:48;1.40;;;0.98;;
12480;SDS011;6305;48.398;11.762;2023-09-19T09:43:26;1.50;;;1.10;;
12480;SDS011;6305;48.398;11.762;2023-09-19T09:46:07;1.40;;;1.30;;
12480;SDS011;6305;48.398;11.762;2023-09-19T09:48:58;1.58;;;1.20;;
12480;SDS011;6305;48.398;11.762;2023-09-19T09:51:43;1.52;;;1.10;;
12480;SDS011;6305;48.398;11.762;2023-09-19T09:54:15;1.17;;;0.98;;
12480;SDS011;6305;48.398;11.762;2023-09-19T09:56:52;1.95;;;1.05;;
12480;SDS011;6305;48.398;11.762;2023-09-19T09:59:45;1.45;;;1.10;;
12480;SDS011;6305;48.398;11.762;2023-09-19T10:02:17;1.50;;;1.20;;
12480;SDS011;6305;48.398;11.762;2023-09-19T10:04:49;1.10;;;1.00;;
12480;SDS011;6305;48.398;11.762;2023-09-19T10:07:31;1.20;;;1.02;;
12480;SDS011;6305;48.398;11.762;2023-09-19T10:10:03;2.10;;;0.90;;
12480;SDS011;6305;48.398;11.762;2023-09-19T10:12:45;1.52;;;0.93;;
12480;SDS011;6305;48.398;11.762;2023-09-19T10:15:16;1.15;;;0.90;;
12480;SDS011;6305;48.398;11.762;2023-09-19T10:17:46;1.40;;;0.82;;
12480;SDS011;6305;48.398;11.762;2023-09-19T10:20:14;2.15;;;1.00;;
12480;SDS011;6305;48.398;11.762;2023-09-19T10:22:59;1.70;;;1.00;;
12480;SDS011;6305;48.398;11.762;2023-09-19T10:25:27;1.77;;;1.08;;
12480;SDS011;6305;48.398;11.762;2023-09-19T10:27:56;1.17;;;0.90;;
12480;SDS011;6305;48.398;11.762;2023-09-19T10:30:30;1.45;;;0.85;;
12480;SDS011;6305;48.398;11.762;2023-09-19T10:33:01;2.25;;;1.02;;
12480;SDS011;6305;48.398;11.762;2023-09-19T10:35:29;2.25;;;0.80;;
12480;SDS011;6305;48.398;11.762;2023-09-19T10:37:57;1.10;;;0.85;;
12480;SDS011;6305;48.398;11.762;2023-09-19T10:40:32;3.78;;;1.30;;
12480;SDS011;6305;48.398;11.762;2023-09-19T10:43:02;1.00;;;0.90;;
12480;SDS011;6305;48.398;11.762;2023-09-19T10:45:33;1.08;;;0.90;;
12480;SDS011;6305;48.398;11.762;2023-09-19T10:48:04;2.35;;;1.10;;
12480;SDS011;6305;48.398;11.762;2023-09-19T10:50:43;1.20;;;1.10;;
12480;SDS011;6305;48.398;11.762;2023-09-19T10:53:14;1.25;;;0.98;;
12480;SDS011;6305;48.398;11.762;2023-09-19T10:55:47;2.38;;;1.10;;
12480;SDS011;6305;48.398;11.762;2023-09-19T10:58:24;1.40;;;0.90;;
12480;SDS011;6305;48.398;11.762;2023-09-19T11:00:57;1.08;;;0.95;;
12480;SDS011;6305;48.398;11.762;2023-09-19T11:03:37;1.48;;;0.98;;
12480;SDS011;6305;48.398;11.762;2023-09-19T11:06:12;1.52;;;0.85;;
12480;SDS011;6305;48.398;11.762;2023-09-19T11:08:51;3.08;;;1.17;;
12480;SDS011;6305;48.398;11.762;2023-09-19T11:11:41;1.75;;;0.80;;
12480;SDS011;6305;48.398;11.762;2023-09-19T11:20:22;1.58;;;0.93;;
12480;SDS011;6305;48.398;11.762;2023-09-19T11:23:18;2.28;;;0.80;;
12480;SDS011;6305;48.398;11.762;2023-09-19T11:25:48;1.05;;;0.88;;
12480;SDS011;6305;48.398;11.762;2023-09-19T11:28:35;0.88;;;0.80;;
12480;SDS011;6305;48.398;11.762;2023-09-19T11:34:43;0.73;;;0.73;;
12480;SDS011;6305;48.398;11.762;2023-09-19T11:40:52;1.33;;;0.90;;
12480;SDS011;6305;48.398;11.762;2023-09-19T11:47:04;1.27;;;0.82;;
12480;SDS011;6305;48.398;11.762;2023-09-19T11:49:33;0.98;;;0.70;;
12480;SDS011;6305;48.398;11.762;2023-09-19T11:52:02;0.85;;;0.80;;
12480;SDS011;6305;48.398;11.762;2023-09-19T11:54:31;1.58;;;0.70;;
12480;SDS011;6305;48.398;11.762;2023-09-19T11:57:00;0.75;;;0.75;;
12480;SDS011;6305;48.398;11.762;2023-09-19T11:59:28;1.40;;;0.82;;
12480;SDS011;6305;48.398;11.762;2023-09-19T12:02:03;1.60;;;0.90;;
12480;SDS011;6305;48.398;11.762;2023-09-19T12:04:35;0.90;;;0.90;;
12480;SDS011;6305;48.398;11.762;2023-09-19T12:07:04;0.98;;;0.77;;
12480;SDS011;6305;48.398;11.762;2023-09-19T12:09:38;1.00;;;0.80;;
12480;SDS011;6305;48.398;11.762;2023-09-19T12:12:08;1.48;;;1.00;;
12480;SDS011;6305;48.398;11.762;2023-09-19T12:14:37;2.47;;;1.02;;
12480;SDS011;6305;48.398;11.762;2023-09-19T12:17:09;2.28;;;1.10;;
12480;SDS011;6305;48.398;11.762;2023-09-19T12:19:49;1.83;;;1.00;;
12480;SDS011;6305;48.398;11.762;2023-09-19T12:22:16;1.40;;;0.90;;
12480;SDS011;6305;48.398;11.762;2023-09-19T12:24:45;0.80;;;0.80;;
12480;SDS011;6305;48.398;11.762;2023-09-19T12:27:14;1.10;;;0.90;;
12480;SDS011;6305;48.398;11.762;2023-09-19T12:29:42;2.30;;;1.10;;
12480;SDS011;6305;48.398;11.762;2023-09-19T12:32:14;2.25;;;1.00;;
12480;SDS011;6305;48.398;11.762;2023-09-19T12:34:42;1.00;;;0.75;;
12480;SDS011;6305;48.398;11.762;2023-09-19T12:37:17;1.17;;;0.90;;
12480;SDS011;6305;48.398;11.762;2023-09-19T12:39:47;1.20;;;0.93;;
12480;SDS011;6305;48.398;11.762;2023-09-19T12:42:18;1.40;;;1.00;;
12480;SDS011;6305;48.398;11.762;2023-09-19T12:44:47;1.58;;;1.00;;
12480;SDS011;6305;48.398;11.762;2023-09-19T12:47:17;1.52;;;0.82;;
12480;SDS011;6305;48.398;11.762;2023-09-19T12:50:07;3.85;;;1.10;;
12480;SDS011;6305;48.398;11.762;2023-09-19T12:52:40;1.20;;;0.93;;
12480;SDS011;6305;48.398;11.762;2023-09-19T12:55:18;1.45;;;1.17;;
12480;SDS011;6305;48.398;11.762;2023-09-19T12:57:56;1.70;;;1.05;;
12480;SDS011;6305;48.398;11.762;2023-09-19T13:00:31;1.00;;;0.80;;
12480;SDS011;6305;48.398;11.762;2023-09-19T13:03:12;1.38;;;1.00;;
12480;SDS011;6305;48.398;11.762;2023-09-19T13:05:48;1.88;;;1.17;;
12480;SDS011;6305;48.398;11.762;2023-09-19T13:08:17;1.02;;;0.93;;
12480;SDS011;6305;48.398;11.762;2023-09-19T13:11:05;1.88;;;1.10;;
12480;SDS011;6305;48.398;11.762;2023-09-19T13:13:36;1.45;;;1.10;;
12480;SDS011;6305;48.398;11.762;2023-09-19T13:16:04;1.10;;;0.95;;
12480;SDS011;6305;48.398;11.762;2023-09-19T13:18:46;2.08;;;1.10;;
12480;SDS011;6305;48.398;11.762;2023-09-19T13:21:16;0.90;;;0.80;;
12480;SDS011;6305;48.398;11.762;2023-09-19T13:23:51;1.98;;;1.00;;
12480;SDS011;6305;48.398;11.762;2023-09-19T13:26:19;1.70;;;0.82;;
12480;SDS011;6305;48.398;11.762;2023-09-19T13:28:49;1.73;;;1.10;;
12480;SDS011;6305;48.398;11.762;2023-09-19T13:31:16;0.90;;;0.68;;
12480;SDS011;6305;48.398;11.762;2023-09-19T13:33:43;1.70;;;0.88;;
12480;SDS011;6305;48.398;11.762;2023-09-19T13:36:11;1.25;;;0.95;;
12480;SDS011;6305;48.398;11.762;2023-09-19T13:38:39;2.05;;;1.08;;
12480;SDS011;6305;48.398;11.762;2023-09-19T13:41:09;0.80;;;0.80;;
12480;SDS011;6305;48.398;11.762;2023-09-19T13:43:36;2.05;;;0.90;;
12480;SDS011;6305;48.398;11.762;2023-09-19T13:46:05;2.53;;;0.88;;
12480;SDS011;6305;48.398;11.762;2023-09-19T13:48:37;1.75;;;0.98;;
12480;SDS011;6305;48.398;11.762;2023-09-19T13:51:04;1.10;;;1.00;;
12480;SDS011;6305;48.398;11.762;2023-09-19T13:53:31;1.40;;;0.80;;
12480;SDS011;6305;48.398;11.762;2023-09-19T13:55:58;2.08;;;0.95;;
12480;SDS011;6305;48.398;11.762;2023-09-19T13:58:24;1.40;;;0.80;;
12480;SDS011;6305;48.398;11.762;2023-09-19T14:00:52;0.93;;;0.80;;
12480;SDS011;6305;48.398;11.762;2023-09-19T14:03:22;1.67;;;1.00;;
12480;SDS011;6305;48.398;11.762;2023-09-19T14:05:49;1.73;;;0.93;;
12480;SDS011;6305;48.398;11.762;2023-09-19T14:08:17;1.52;;;1.10;;
12480;SDS011;6305;48.398;11.762;2023-09-19T14:10:44;0.95;;;0.70;;
12480;SDS011;6305;48.398;11.762;2023-09-19T14:13:11;2.03;;;0.95;;
12480;SDS011;6305;48.398;11.762;2023-09-19T14:15:40;1.00;;;0.90;;
12480;SDS011;6305;48.398;11.762;2023-09-19T14:18:08;1.05;;;0.70;;
12480;SDS011;6305;48.398;11.762;2023-09-19T14:20:37;1.25;;;0.95;;
12480;SDS011;6305;48.398;11.762;2023-09-19T14:23:06;1.20;;;0.90;;
12480;SDS011;6305;48.398;11.762;2023-09-19T14:25:33;1.30;;;0.95;;
12480;SDS011;6305;48.398;11.762;2023-09-19T14:28:01;1.80;;;1.00;;
12480;SDS011;6305;48.398;11.762;2023-09-19T14:30:28;1.60;;;1.13;;
12480;SDS011;6305;48.398;11.762;2023-09-19T14:32:55;1.13;;;0.88;;
12480;SDS011;6305;48.398;11.762;2023-09-19T14:35:23;1.20;;;0.90;;
12480;SDS011;6305;48.398;11.762;2023-09-19T14:37:51;2.63;;;1.20;;
12480;SDS011;6305;48.398;11.762;2023-09-19T14:40:19;1.55;;;1.00;;
12480;SDS011;6305;48.398;11.762;2023-09-19T14:42:47;1.30;;;0.88;;
12480;SDS011;6305;48.398;11.762;2023-09-19T14:45:14;1.90;;;1.00;;
12480;SDS011;6305;48.398;11.762;2023-09-19T14:47:43;0.80;;;0.80;;
12480;SDS011;6305;48.398;11.762;2023-09-19T14:50:12;1.38;;;1.00;;
12480;SDS011;6305;48.398;11.762;2023-09-19T14:52:40;1.42;;;1.08;;
12480;SDS011;6305;48.398;11.762;2023-09-19T14:55:08;2.55;;;1.08;;
12480;SDS011;6305;48.398;11.762;2023-09-19T14:57:39;1.45;;;1.10;;
12480;SDS011;6305;48.398;11.762;2023-09-19T15:00:10;1.17;;;0.98;;
12480;SDS011;6305;48.398;11.762;2023-09-19T15:02:38;1.60;;;0.90;;
12480;SDS011;6305;48.398;11.762;2023-09-19T15:05:06;1.33;;;0.80;;
12480;SDS011;6305;48.398;11.762;2023-09-19T15:07:34;1.05;;;0.80;;
12480;SDS011;6305;48.398;11.762;2023-09-19T15:10:03;1.65;;;1.00;;
12480;SDS011;6305;48.398;11.762;2023-09-19T15:18:15;1.45;;;0.90;;
12480;SDS011;6305;48.398;11.762;2023-09-19T15:21:02;2.60;;;1.02;;
12480;SDS011;6305;48.398;11.762;2023-09-19T15:23:36;1.05;;;0.88;;
12480;SDS011;6305;48.398;11.762;2023-09-19T15:26:06;2.03;;;1.40;;
12480;SDS011;6305;48.398;11.762;2023-09-19T15:28:50;1.60;;;1.13;;
12480;SDS011;6305;48.398;11.762;2023-09-19T15:31:26;2.30;;;1.33;;
12480;SDS011;6305;48.398;11.762;2023-09-19T15:33:53;3.03;;;1.17;;
12480;SDS011;6305;48.398;11.762;2023-09-19T15:36:20;1.88;;;1.10;;
12480;SDS011;6305;48.398;11.762;2023-09-19T15:38:57;2.15;;;1.23;;